West Mansfield, Ohio
Current Conditions -  °F | °C
As of 5:15 PM on Tuesday 21 Oct 2014 (Local Time) from KEDJ Reporting Station
Overcast Overcast  
Wind Chill: 38°   Ceiling: 2700
Heat Index: 45°   Visibility: 10mi
Dew Point: 41°   Wind: 15mph
Humidity: 87%   Direction: 10°N
Pressure: 30.09"   Gusts: NA
Location:  40.4°N, 83.55°W
Report Text: KEDJ 212115Z AUTO 01013KT 10SM FEW020 BKN027 OVC032 07/05 A3009 RMK AO1
Loading
Personal Weather Stations






























Interactive Weather Map New forecast layout! Learn more

10-Day Weather Forecast

Advertisements
Track Severe Weather on mobile